createdAt,value
2018-09-23T00:00:07.808Z,56.463623
2018-09-23T00:00:37.374Z,56.567383
2018-09-23T00:01:07.509Z,56.463623
2018-09-23T00:01:37.000Z,56.567383
2018-09-23T00:02:06.546Z,56.665039
2018-09-23T00:02:35.917Z,56.866455
2018-09-23T00:03:05.486Z,56.665039
2018-09-23T00:03:34.966Z,56.665039
2018-09-23T00:04:04.540Z,56.793213
2018-09-23T00:04:34.014Z,56.890869
2018-09-23T00:05:03.439Z,57.092285
2018-09-23T00:05:32.991Z,56.768799
2018-09-23T00:06:02.614Z,56.463623
2018-09-23T00:06:32.067Z,56.237793
2018-09-23T00:07:01.595Z,55.841064
2018-09-23T00:07:31.554Z,55.541992
2018-09-23T00:08:01.056Z,55.438232
2018-09-23T00:08:30.841Z,55.340576
2018-09-23T00:09:00.182Z,55.114746
2018-09-23T00:09:29.510Z,54.815674
2018-09-23T00:09:59.021Z,54.614258
2018-09-23T00:10:28.823Z,54.614258
2018-09-23T00:10:58.343Z,54.614258
2018-09-23T00:11:28.255Z,54.516602
2018-09-23T00:11:57.885Z,54.614258
2018-09-23T00:12:27.533Z,54.516602
2018-09-23T00:12:58.068Z,54.412842
2018-09-23T00:13:27.856Z,54.711914
2018-09-23T00:13:57.188Z,54.815674
2018-09-23T00:14:26.576Z,54.815674
2018-09-23T00:14:56.374Z,54.711914
2018-09-23T00:15:26.008Z,54.412842
2018-09-23T00:15:55.502Z,54.412842
2018-09-23T00:16:24.857Z,54.187012
2018-09-23T00:16:54.278Z,54.412842
2018-09-23T00:17:24.785Z,54.412842
2018-09-23T00:17:54.535Z,54.516602
2018-09-23T00:18:23.890Z,54.91333
2018-09-23T00:18:53.292Z,55.13916
2018-09-23T00:19:22.705Z,55.24292
2018-09-23T00:19:52.734Z,55.438232
2018-09-23T00:20:25.113Z,55.541992
2018-09-23T00:20:56.928Z,55.541992
2018-09-23T00:21:26.987Z,55.541992
2018-09-23T00:21:56.793Z,55.340576
2018-09-23T00:22:26.537Z,55.13916
2018-09-23T00:22:56.004Z,55.13916
2018-09-23T00:23:25.673Z,55.13916
2018-09-23T00:23:55.700Z,55.316162
2018-09-23T00:24:25.412Z,54.91333
2018-09-23T00:24:54.948Z,54.815674
2018-09-23T00:25:25.612Z,54.937744
2018-09-23T00:25:55.224Z,55.041504
2018-09-23T00:26:24.914Z,55.041504
2018-09-23T00:26:54.428Z,55.438232
2018-09-23T00:27:23.911Z,55.340576
2018-09-23T00:27:53.637Z,55.24292
2018-09-23T00:28:29.242Z,55.438232
2018-09-23T00:29:32.286Z,55.46875
2018-09-23T00:30:19.690Z,55.566406
2018-09-23T00:31:10.775Z,55.664062
2018-09-23T00:31:53.330Z,55.969238
2018-09-23T00:32:24.120Z,55.566406
2018-09-23T00:32:53.973Z,55.767822
2018-09-23T00:33:23.853Z,55.36499
2018-09-23T00:34:00.733Z,55.969238
2018-09-23T00:34:41.247Z,55.46875
2018-09-23T00:35:21.970Z,55.865479
2018-09-23T00:36:00.701Z,55.767822
2018-09-23T00:36:43.155Z,55.792236
2018-09-23T00:37:15.516Z,55.889893
2018-09-23T00:37:47.286Z,55.566406
2018-09-23T00:38:30.636Z,55.46875
2018-09-23T00:39:16.893Z,55.065918
2018-09-23T00:40:02.102Z,55.169678
2018-09-23T00:40:56.899Z,54.541016
2018-09-23T00:41:28.489Z,54.541016
2018-09-23T00:42:01.079Z,54.766846
2018-09-23T00:42:41.610Z,54.864502
2018-09-23T00:43:27.510Z,54.443359
2018-09-23T00:44:06.410Z,54.541016
2018-09-23T00:44:43.124Z,54.241943
2018-09-23T00:45:13.592Z,53.741455
2018-09-23T00:45:43.712Z,53.540039
2018-09-23T00:46:13.450Z,53.417969
2018-09-23T00:46:43.363Z,53.216553
2018-09-23T00:47:12.789Z,53.118896
2018-09-23T00:47:42.781Z,53.118896
2018-09-23T00:48:12.306Z,53.015137
2018-09-23T00:48:41.838Z,52.91748
2018-09-23T00:49:11.707Z,53.118896
2018-09-23T00:49:41.661Z,53.118896
2018-09-23T00:50:12.703Z,53.118896
2018-09-23T00:50:42.786Z,53.216553
2018-09-23T00:51:12.603Z,53.118896
2018-09-23T00:51:43.902Z,52.990723
2018-09-23T00:52:14.995Z,52.893066
2018-09-23T00:52:44.788Z,52.990723
2018-09-23T00:53:14.641Z,52.789307
2018-09-23T00:53:45.460Z,52.789307
2018-09-23T00:54:14.798Z,52.69165
2018-09-23T00:54:44.884Z,52.789307
2018-09-23T00:55:14.788Z,52.69165
2018-09-23T00:55:44.555Z,52.490234
2018-09-23T00:56:14.563Z,52.294922
2018-09-23T00:56:45.403Z,52.294922
2018-09-23T00:57:15.950Z,52.191162
2018-09-23T00:57:46.425Z,52.392578
2018-09-23T00:58:16.764Z,52.392578
2018-09-23T00:58:47.084Z,52.490234
2018-09-23T00:59:18.102Z,52.490234
2018-09-23T00:59:48.844Z,52.490234
2018-09-23T01:00:18.223Z,52.593994
2018-09-23T01:00:48.837Z,52.490234
2018-09-23T01:01:18.270Z,52.392578
2018-09-23T01:01:47.820Z,52.093506
2018-09-23T01:02:17.579Z,52.093506
2018-09-23T01:02:47.317Z,52.020264
2018-09-23T01:03:17.108Z,52.319336
2018-09-23T01:03:50.148Z,52.416992
2018-09-23T01:04:23.792Z,52.416992
2018-09-23T01:04:59.614Z,52.319336
2018-09-23T01:05:32.082Z,52.11792
2018-09-23T01:06:01.896Z,52.34375
2018-09-23T01:06:32.450Z,52.844238
2018-09-23T01:07:02.584Z,52.941895
2018-09-23T01:07:32.324Z,52.941895
2018-09-23T01:08:02.489Z,52.941895
2018-09-23T01:08:33.310Z,52.770996
2018-09-23T01:09:03.224Z,53.070068
2018-09-23T01:09:33.130Z,53.167725
2018-09-23T01:10:03.024Z,53.570557
2018-09-23T01:10:32.835Z,53.894043
2018-09-23T01:11:02.657Z,53.991699
2018-09-23T01:11:32.627Z,54.016113
2018-09-23T01:12:04.823Z,54.119873
2018-09-23T01:12:35.524Z,54.418945
2018-09-23T01:13:06.271Z,54.620361
2018-09-23T01:13:37.304Z,54.620361
2018-09-23T01:14:07.956Z,54.620361
2018-09-23T01:14:38.247Z,54.620361
2018-09-23T01:15:09.726Z,54.394531
2018-09-23T01:15:39.583Z,53.894043
2018-09-23T01:16:11.047Z,53.692627
2018-09-23T01:16:42.027Z,53.491211
2018-09-23T01:17:12.305Z,53.692627
2018-09-23T01:17:42.915Z,53.491211
2018-09-23T01:18:13.649Z,53.393555
2018-09-23T01:18:43.805Z,53.594971
2018-09-23T01:19:13.896Z,53.491211
2018-09-23T01:19:44.164Z,53.594971
2018-09-23T01:20:14.748Z,53.466797
2018-09-23T01:20:45.421Z,53.167725
2018-09-23T01:21:16.044Z,53.369141
2018-09-23T01:21:46.444Z,53.570557
2018-09-23T01:22:17.066Z,53.070068
2018-09-23T01:22:48.510Z,52.667236
2018-09-23T01:23:19.200Z,52.56958
2018-09-23T01:23:49.712Z,52.46582
2018-09-23T01:24:20.399Z,52.368164
2018-09-23T01:24:51.524Z,52.368164
2018-09-23T01:25:22.316Z,52.191162
2018-09-23T01:25:55.157Z,52.294922
2018-09-23T01:26:26.894Z,52.593994
2018-09-23T01:27:01.240Z,53.094482
2018-09-23T01:27:36.499Z,53.417969
2018-09-23T01:28:08.826Z,53.717041
2018-09-23T01:28:39.448Z,53.942871
2018-09-23T01:29:10.064Z,54.046631
2018-09-23T01:29:40.738Z,54.144287
2018-09-23T01:30:11.204Z,54.046631
2018-09-23T01:30:41.556Z,54.144287
2018-09-23T01:31:13.597Z,54.046631
2018-09-23T01:31:46.277Z,54.345703
2018-09-23T01:32:16.471Z,54.345703
2018-09-23T01:32:47.071Z,54.144287
2018-09-23T01:33:17.633Z,54.119873
2018-09-23T01:33:47.973Z,54.119873
2018-09-23T01:34:18.276Z,53.918457
2018-09-23T01:34:48.655Z,53.216553
2018-09-23T01:35:18.856Z,53.515625
2018-09-23T01:35:48.962Z,53.216553
2018-09-23T01:36:19.090Z,52.79541
2018-09-23T01:36:49.454Z,52.392578
2018-09-23T01:37:19.865Z,52.191162
2018-09-23T01:37:50.346Z,52.294922
2018-09-23T01:38:20.803Z,52.416992
2018-09-23T01:38:51.066Z,52.618408
2018-09-23T01:39:21.420Z,52.716064
2018-09-23T01:39:51.946Z,52.392578
2018-09-23T01:40:22.793Z,52.667236
2018-09-23T01:40:53.093Z,51.971436
2018-09-23T01:41:23.263Z,51.342773
2018-09-23T01:41:53.539Z,50.842285
2018-09-23T01:42:23.950Z,50.842285
2018-09-23T01:42:54.273Z,50.646973
2018-09-23T01:43:24.571Z,50.646973
2018-09-23T01:43:54.719Z,50.646973
2018-09-23T01:44:24.957Z,50.744629
2018-09-23T01:44:55.027Z,50.146484
2018-09-23T01:45:25.123Z,50.042725
2018-09-23T01:45:55.334Z,50.244141
2018-09-23T01:46:25.600Z,49.920654
2018-09-23T01:46:56.962Z,50.024414
2018-09-23T01:47:27.170Z,49.621582
2018-09-23T01:47:57.611Z,49.621582
2018-09-23T01:48:27.986Z,49.420166
2018-09-23T01:48:58.378Z,49.44458
2018-09-23T01:49:28.701Z,49.54834
2018-09-23T01:49:58.983Z,49.54834
2018-09-23T01:50:29.186Z,49.54834
2018-09-23T01:50:59.232Z,49.645996
2018-09-23T01:51:29.654Z,49.645996
2018-09-23T01:51:59.999Z,49.645996
2018-09-23T01:52:30.396Z,49.847412
2018-09-23T01:53:00.805Z,49.945068
2018-09-23T01:53:31.233Z,49.743652
2018-09-23T01:54:01.533Z,49.743652
2018-09-23T01:54:31.771Z,49.54834
2018-09-23T01:55:01.907Z,49.621582
2018-09-23T01:55:32.047Z,49.719238
2018-09-23T01:56:02.108Z,49.621582
2018-09-23T01:56:32.296Z,49.523926
2018-09-23T01:57:02.080Z,49.621582
2018-09-23T01:57:31.448Z,49.822998
2018-09-23T01:58:01.800Z,49.523926
2018-09-23T01:58:31.156Z,49.523926
2018-09-23T01:59:00.514Z,49.523926
2018-09-23T01:59:29.839Z,49.523926
2018-09-23T01:59:59.180Z,49.420166
2018-09-23T02:00:28.516Z,49.420166
2018-09-23T02:00:57.804Z,49.401855
2018-09-23T02:01:28.109Z,49.401855
2018-09-23T02:01:57.378Z,49.401855
2018-09-23T02:02:26.669Z,49.298096
2018-09-23T02:02:55.974Z,49.200439
2018-09-23T02:03:25.346Z,48.999023
2018-09-23T02:03:54.658Z,49.09668
2018-09-23T02:04:23.940Z,48.699951
2018-09-23T02:04:53.247Z,48.602295
2018-09-23T02:05:22.545Z,48.498535
2018-09-23T02:05:51.877Z,48.498535
2018-09-23T02:06:22.196Z,48.199463
2018-09-23T02:06:51.496Z,48.400879
2018-09-23T02:07:21.757Z,48.498535
2018-09-23T02:07:51.022Z,48.498535
2018-09-23T02:08:20.386Z,48.400879
2018-09-23T02:08:49.713Z,48.498535
2018-09-23T02:09:18.997Z,48.498535
2018-09-23T02:09:48.289Z,48.303223
2018-09-23T02:10:17.603Z,47.900391
2018-09-23T02:10:46.993Z,47.900391
2018-09-23T02:11:16.272Z,47.802734
2018-09-23T02:11:45.598Z,47.900391
2018-09-23T02:12:14.872Z,48.022461
2018-09-23T02:12:44.170Z,48.223877
2018-09-23T02:13:13.503Z,48.321533
2018-09-23T02:13:42.840Z,48.425293
2018-09-23T02:14:12.192Z,48.626709
2018-09-23T02:14:41.505Z,48.126221
2018-09-23T02:15:10.802Z,48.022461
2018-09-23T02:15:40.185Z,48.126221
2018-09-23T02:16:09.441Z,48.101807
2018-09-23T02:16:38.714Z,47.900391
2018-09-23T02:17:07.986Z,47.802734
2018-09-23T02:17:38.312Z,47.503662
2018-09-23T02:18:07.611Z,47.503662
2018-09-23T02:18:36.957Z,47.503662
2018-09-23T02:19:06.298Z,47.601318
2018-09-23T02:19:35.606Z,47.723389
2018-09-23T02:20:04.895Z,47.924805
2018-09-23T02:20:34.194Z,47.827148
2018-09-23T02:21:03.545Z,47.723389
2018-09-23T02:21:32.814Z,47.723389
2018-09-23T02:22:02.149Z,47.705078
2018-09-23T02:22:31.437Z,47.625732
2018-09-23T02:23:01.703Z,47.625732
2018-09-23T02:23:30.984Z,47.827148
2018-09-23T02:24:00.315Z,47.827148
2018-09-23T02:24:30.588Z,47.924805
2018-09-23T02:24:59.834Z,47.827148
2018-09-23T02:25:29.136Z,47.827148
2018-09-23T02:25:58.415Z,47.827148
2018-09-23T02:26:27.715Z,47.827148
2018-09-23T02:26:57.031Z,47.827148
2018-09-23T02:27:26.333Z,48.022461
2018-09-23T02:27:55.583Z,48.022461
2018-09-23T02:28:24.906Z,48.022461
2018-09-23T02:28:54.253Z,48.022461
2018-09-23T02:29:23.581Z,48.022461
2018-09-23T02:29:52.881Z,48.199463
2018-09-23T02:30:22.197Z,48.199463
2018-09-23T02:30:51.477Z,48.199463
2018-09-23T02:31:20.761Z,48.199463
2018-09-23T02:31:50.048Z,48.199463
2018-09-23T02:32:19.333Z,48.199463
2018-09-23T02:32:48.593Z,48.303223
2018-09-23T02:33:17.891Z,48.199463
2018-09-23T02:33:47.251Z,48.199463
2018-09-23T02:34:16.664Z,48.00415
2018-09-23T02:34:45.926Z,47.705078
2018-09-23T02:35:15.225Z,47.302246
2018-09-23T02:35:44.518Z,47.625732
2018-09-23T02:36:13.804Z,47.924805
2018-09-23T02:36:43.116Z,47.827148
2018-09-23T02:37:12.378Z,47.625732
2018-09-23T02:37:41.657Z,47.601318
2018-09-23T02:38:11.926Z,47.601318
2018-09-23T02:38:42.213Z,47.2229
2018-09-23T02:39:11.539Z,47.32666
2018-09-23T02:39:40.787Z,47.650146
2018-09-23T02:40:10.154Z,47.845459
2018-09-23T02:40:40.417Z,48.168945
2018-09-23T02:41:09.754Z,48.370361
2018-09-23T02:41:39.075Z,48.468018
2018-09-23T02:42:08.394Z,48.571777
2018-09-23T02:42:37.724Z,48.571777
2018-09-23T02:43:07.008Z,48.571777
2018-09-23T02:43:36.321Z,48.571777
2018-09-23T02:44:05.662Z,48.468018
2018-09-23T02:44:35.022Z,48.468018
2018-09-23T02:45:04.320Z,48.571777
2018-09-23T02:45:33.585Z,48.596191
2018-09-23T02:46:02.899Z,48.895264
2018-09-23T02:46:32.224Z,48.895264
2018-09-23T02:47:01.575Z,48.895264
2018-09-23T02:47:30.860Z,49.090576
2018-09-23T02:48:00.175Z,49.11499
2018-09-23T02:48:29.444Z,49.194336
2018-09-23T02:48:58.740Z,49.194336
2018-09-23T02:49:28.113Z,49.291992
2018-09-23T02:49:57.425Z,49.493408
2018-09-23T02:50:26.717Z,49.291992
2018-09-23T02:50:55.984Z,49.194336
2018-09-23T02:51:25.258Z,48.87085
2018-09-23T02:51:54.561Z,48.773193
2018-09-23T02:52:23.859Z,48.773193
2018-09-23T02:52:53.131Z,48.669434
2018-09-23T02:53:23.381Z,48.773193
2018-09-23T02:53:52.705Z,48.468018
2018-09-23T02:54:22.049Z,48.168945
2018-09-23T02:54:51.342Z,48.168945
2018-09-23T02:55:20.620Z,48.370361
2018-09-23T02:55:49.880Z,48.370361
2018-09-23T02:56:19.159Z,48.168945
2018-09-23T02:56:48.463Z,48.468018
2018-09-23T02:57:17.809Z,48.370361
2018-09-23T02:57:47.004Z,48.370361
2018-09-23T02:58:16.319Z,48.272705
2018-09-23T02:58:45.661Z,48.168945
2018-09-23T02:59:14.920Z,47.973633
2018-09-23T02:59:44.271Z,47.772217
2018-09-23T03:00:13.560Z,47.869873
2018-09-23T03:00:42.853Z,48.071289
2018-09-23T03:01:12.148Z,48.272705
2018-09-23T03:01:41.418Z,47.772217
2018-09-23T03:02:11.672Z,47.570801
2018-09-23T03:02:40.945Z,47.869873
2018-09-23T03:03:10.191Z,48.193359
2018-09-23T03:03:39.518Z,48.492432
2018-09-23T03:04:08.931Z,48.394775
2018-09-23T03:04:38.189Z,48.614502
2018-09-23T03:05:07.541Z,48.718262
2018-09-23T03:05:36.839Z,48.919678
2018-09-23T03:06:06.170Z,48.919678
2018-09-23T03:06:35.518Z,48.815918
2018-09-23T03:07:04.804Z,48.919678
2018-09-23T03:07:34.077Z,48.919678
2018-09-23T03:08:03.384Z,49.017334
2018-09-23T03:08:32.632Z,49.017334
2018-09-23T03:09:01.900Z,48.919678
2018-09-23T03:09:31.165Z,48.919678
2018-09-23T03:10:00.508Z,48.919678
2018-09-23T03:10:29.773Z,48.815918
2018-09-23T03:10:59.076Z,48.693848
2018-09-23T03:11:28.441Z,48.596191
2018-09-23T03:11:57.768Z,48.492432
2018-09-23T03:12:27.074Z,48.596191
2018-09-23T03:12:56.381Z,48.492432
2018-09-23T03:13:25.724Z,48.492432
2018-09-23T03:13:55.103Z,48.492432
2018-09-23T03:14:24.415Z,48.596191
2018-09-23T03:14:53.713Z,48.370361
2018-09-23T03:15:23.020Z,48.370361
2018-09-23T03:15:52.336Z,48.370361
2018-09-23T03:16:21.664Z,48.168945
2018-09-23T03:16:51.116Z,48.071289
2018-09-23T03:17:20.432Z,47.869873
2018-09-23T03:17:49.721Z,47.869873
2018-09-23T03:18:19.024Z,47.790527
2018-09-23T03:18:48.348Z,47.894287
2018-09-23T03:19:17.684Z,47.991943
2018-09-23T03:19:46.956Z,47.894287
2018-09-23T03:20:16.270Z,48.095703
2018-09-23T03:20:46.545Z,48.193359
2018-09-23T03:21:15.879Z,48.095703
2018-09-23T03:21:45.176Z,48.095703
2018-09-23T03:22:14.609Z,49.194336
2018-09-23T03:22:43.893Z,47.991943
2018-09-23T03:23:13.211Z,48.095703
2018-09-23T03:23:42.492Z,47.991943
2018-09-23T03:24:11.891Z,47.894287
2018-09-23T03:24:41.256Z,47.790527
2018-09-23T03:25:10.563Z,47.790527
2018-09-23T03:25:39.925Z,47.790527
2018-09-23T03:26:09.245Z,47.692871
2018-09-23T03:26:38.599Z,47.692871
2018-09-23T03:27:07.906Z,47.692871
2018-09-23T03:27:37.229Z,47.692871
2018-09-23T03:28:06.564Z,47.595215
2018-09-23T03:28:35.862Z,47.692871
2018-09-23T03:29:05.170Z,47.790527
2018-09-23T03:29:34.464Z,47.692871
2018-09-23T03:30:03.736Z,47.692871
2018-09-23T03:30:33.112Z,47.692871
2018-09-23T03:31:02.526Z,47.692871
2018-09-23T03:31:32.868Z,47.692871
2018-09-23T03:32:02.197Z,47.692871
2018-09-23T03:32:31.514Z,47.894287
2018-09-23T03:33:00.861Z,47.491455
2018-09-23T03:33:30.191Z,47.491455
2018-09-23T03:33:59.526Z,47.491455
2018-09-23T03:34:28.816Z,47.491455
2018-09-23T03:34:58.230Z,47.595215
2018-09-23T03:35:27.592Z,47.491455
2018-09-23T03:35:57.028Z,47.491455
2018-09-23T03:36:26.318Z,47.491455
2018-09-23T03:36:55.652Z,47.595215
2018-09-23T03:37:24.987Z,47.192383
2018-09-23T03:37:54.251Z,47.491455
2018-09-23T03:38:23.543Z,47.613525
2018-09-23T03:38:52.844Z,47.717285
2018-09-23T03:39:22.129Z,47.613525
2018-09-23T03:39:51.461Z,47.814941
2018-09-23T03:40:20.797Z,47.918701
2018-09-23T03:40:50.204Z,48.114014
2018-09-23T03:41:19.509Z,48.138428
2018-09-23T03:41:48.875Z,48.339844
2018-09-23T03:42:18.208Z,48.54126
2018-09-23T03:42:47.564Z,48.638916
2018-09-23T03:43:16.883Z,48.638916
2018-09-23T03:43:46.198Z,48.54126
2018-09-23T03:44:15.551Z,48.638916
2018-09-23T03:44:44.953Z,48.638916
2018-09-23T03:45:14.248Z,48.638916
2018-09-23T03:45:43.620Z,48.54126
2018-09-23T03:46:13.008Z,48.638916
2018-09-23T03:46:42.346Z,48.638916
2018-09-23T03:47:11.681Z,48.638916
2018-09-23T03:47:41.077Z,48.638916
2018-09-23T03:48:10.364Z,48.742676
2018-09-23T03:48:39.787Z,48.54126
2018-09-23T03:49:09.079Z,48.516846
2018-09-23T03:49:38.358Z,48.31543
2018-09-23T03:50:07.628Z,47.918701
2018-09-23T03:50:36.932Z,48.016357
2018-09-23T03:51:06.265Z,48.114014
2018-09-23T03:51:35.577Z,47.918701
2018-09-23T03:52:04.887Z,48.138428
2018-09-23T03:52:34.148Z,48.54126
2018-09-23T03:53:03.471Z,48.937988
2018-09-23T03:53:32.752Z,48.638916
2018-09-23T03:54:02.033Z,49.041748
2018-09-23T03:54:31.308Z,48.638916
2018-09-23T03:55:00.597Z,48.4375
2018-09-23T03:55:29.849Z,51.739502
2018-09-23T03:55:59.129Z,48.4375
2018-09-23T03:56:28.468Z,48.4375
2018-09-23T03:56:57.774Z,48.4375
2018-09-23T03:57:27.030Z,48.4375
2018-09-23T03:57:56.383Z,48.040771
2018-09-23T03:58:25.669Z,48.242188
2018-09-23T03:58:54.947Z,48.242188
2018-09-23T03:59:24.286Z,48.138428
2018-09-23T03:59:53.621Z,50.439453
2018-09-23T04:00:23.900Z,48.638916
2018-09-23T04:00:53.161Z,48.138428
2018-09-23T04:01:22.549Z,47.937012
2018-09-23T04:01:51.816Z,47.839355
2018-09-23T04:02:22.118Z,47.839355
2018-09-23T04:02:51.433Z,47.937012
2018-09-23T04:03:20.712Z,47.839355
2018-09-23T04:03:49.988Z,47.839355
2018-09-23T04:04:19.288Z,47.937012
2018-09-23T04:04:48.553Z,47.937012
2018-09-23T04:05:17.857Z,48.040771
2018-09-23T04:05:47.216Z,48.040771
2018-09-23T04:06:16.537Z,48.138428
2018-09-23T04:06:45.862Z,48.242188
2018-09-23T04:07:15.197Z,48.339844
2018-09-23T04:07:44.477Z,48.339844
2018-09-23T04:08:14.409Z,48.339844
2018-09-23T04:08:44.703Z,48.242188
2018-09-23T04:09:14.034Z,48.339844
2018-09-23T04:09:43.506Z,48.4375
2018-09-23T04:10:12.810Z,48.339844
2018-09-23T04:10:42.165Z,48.31543
2018-09-23T04:11:11.451Z,48.138428
2018-09-23T04:11:40.821Z,48.138428
2018-09-23T04:12:10.205Z,48.339844
2018-09-23T04:12:39.463Z,48.339844
2018-09-23T04:13:08.751Z,48.54126
2018-09-23T04:13:38.061Z,48.339844
2018-09-23T04:14:07.366Z,48.242188
2018-09-23T04:14:36.687Z,48.339844
2018-09-23T04:15:05.966Z,48.217773
2018-09-23T04:15:35.320Z,48.217773
2018-09-23T04:16:04.636Z,48.114014
2018-09-23T04:16:34.922Z,48.016357
2018-09-23T04:17:04.264Z,47.814941
2018-09-23T04:17:33.513Z,47.814941
2018-09-23T04:18:02.795Z,47.918701
2018-09-23T04:18:32.103Z,47.918701
2018-09-23T04:19:01.430Z,48.718262
2018-09-23T04:19:30.757Z,47.814941
2018-09-23T04:20:00.133Z,47.918701
2018-09-23T04:20:29.428Z,47.918701
2018-09-23T04:20:58.687Z,47.814941
2018-09-23T04:21:27.999Z,47.814941
2018-09-23T04:21:57.333Z,47.717285
2018-09-23T04:22:26.662Z,47.814941
2018-09-23T04:22:55.947Z,48.016357
2018-09-23T04:23:26.236Z,48.114014
2018-09-23T04:23:55.545Z,48.31543
2018-09-23T04:24:24.880Z,48.4375
2018-09-23T04:24:54.213Z,48.638916
2018-09-23T04:25:23.608Z,48.742676
2018-09-23T04:25:52.894Z,48.742676
2018-09-23T04:26:22.193Z,48.742676
2018-09-23T04:26:51.561Z,48.840332
2018-09-23T04:27:20.889Z,48.840332
2018-09-23T04:27:50.203Z,48.840332
2018-09-23T04:28:19.534Z,48.840332
2018-09-23T04:28:48.801Z,48.840332
2018-09-23T04:29:18.153Z,48.937988
2018-09-23T04:29:47.441Z,49.041748
2018-09-23T04:30:16.725Z,49.041748
2018-09-23T04:30:46.032Z,49.139404
2018-09-23T04:31:15.333Z,49.041748
2018-09-23T04:31:44.617Z,49.163818
2018-09-23T04:32:13.956Z,49.066162
2018-09-23T04:32:43.267Z,49.462891
2018-09-23T04:33:12.560Z,49.664307
2018-09-23T04:33:41.968Z,49.743652
2018-09-23T04:34:11.253Z,49.542236
2018-09-23T04:34:40.530Z,49.34082
2018-09-23T04:35:09.785Z,48.937988
2018-09-23T04:35:39.106Z,48.937988
2018-09-23T04:36:08.376Z,48.840332
2018-09-23T04:36:37.666Z,48.840332
2018-09-23T04:37:07.004Z,48.742676
2018-09-23T04:37:37.414Z,48.742676
2018-09-23T04:38:06.811Z,48.840332
2018-09-23T04:38:36.088Z,48.742676
2018-09-23T04:39:05.390Z,48.638916
2018-09-23T04:39:34.645Z,48.742676
2018-09-23T04:40:03.973Z,48.4375
2018-09-23T04:40:33.287Z,48.242188
2018-09-23T04:41:02.551Z,48.242188
2018-09-23T04:41:31.853Z,48.242188
2018-09-23T04:42:01.153Z,48.242188
2018-09-23T04:42:30.485Z,48.242188
2018-09-23T04:42:59.794Z,48.339844
2018-09-23T04:43:29.150Z,48.364258
2018-09-23T04:43:58.425Z,48.66333
2018-09-23T04:44:28.744Z,48.864746
2018-09-23T04:44:58.071Z,49.066162
2018-09-23T04:45:27.339Z,49.188232
2018-09-23T04:45:56.644Z,49.487305
2018-09-23T04:46:25.952Z,49.584961
2018-09-23T04:46:55.216Z,49.688721
2018-09-23T04:47:24.478Z,49.713135
2018-09-23T04:47:53.864Z,49.713135
2018-09-23T04:48:23.171Z,49.810791
2018-09-23T04:48:53.486Z,49.914551
2018-09-23T04:49:22.787Z,49.810791
2018-09-23T04:49:52.091Z,49.810791
2018-09-23T04:50:21.389Z,49.609375
2018-09-23T04:50:50.686Z,49.609375
2018-09-23T04:51:20.033Z,49.713135
2018-09-23T04:51:49.316Z,49.487305
2018-09-23T04:52:18.627Z,49.487305
2018-09-23T04:52:47.985Z,49.389648
2018-09-23T04:53:17.274Z,49.389648
2018-09-23T04:53:46.663Z,49.487305
2018-09-23T04:54:15.952Z,49.487305
2018-09-23T04:54:45.238Z,49.688721
2018-09-23T04:55:14.536Z,50.012207
2018-09-23T04:55:43.821Z,50.109863
2018-09-23T04:56:13.125Z,50.415039
2018-09-23T04:56:42.451Z,50.512695
2018-09-23T04:57:11.756Z,50.738525
2018-09-23T04:57:41.103Z,50.738525
2018-09-23T04:58:10.448Z,50.836182
2018-09-23T04:58:39.769Z,50.738525
2018-09-23T04:59:09.108Z,50.836182
2018-09-23T04:59:38.440Z,50.939941
2018-09-23T05:00:07.757Z,50.939941
2018-09-23T05:00:37.018Z,50.836182
2018-09-23T05:01:06.321Z,50.939941
2018-09-23T05:01:35.591Z,50.811768
2018-09-23T05:02:04.868Z,50.714111
2018-09-23T05:02:34.181Z,50.616455
2018-09-23T05:03:03.524Z,50.286865
2018-09-23T05:03:32.793Z,49.987793
2018-09-23T05:04:02.111Z,49.890137
2018-09-23T05:04:31.364Z,49.890137
2018-09-23T05:05:00.656Z,49.987793
2018-09-23T05:05:29.931Z,49.987793
2018-09-23T05:05:59.238Z,49.987793
2018-09-23T05:06:28.543Z,49.890137
2018-09-23T05:06:57.817Z,49.890137
2018-09-23T05:07:27.124Z,49.890137
2018-09-23T05:07:56.418Z,49.890137
2018-09-23T05:08:25.764Z,49.890137
2018-09-23T05:08:56.032Z,49.786377
2018-09-23T05:09:25.400Z,49.664307
2018-09-23T05:09:54.674Z,49.865723
2018-09-23T05:10:23.948Z,49.761963
2018-09-23T05:10:54.243Z,49.761963
2018-09-23T05:11:23.505Z,49.761963
2018-09-23T05:11:52.791Z,49.761963
2018-09-23T05:12:22.043Z,49.761963
2018-09-23T05:12:51.323Z,49.664307
2018-09-23T05:13:20.644Z,49.639893
2018-09-23T05:13:49.950Z,49.542236
2018-09-23T05:14:19.228Z,49.438477
2018-09-23T05:14:48.512Z,49.34082
2018-09-23T05:15:17.788Z,49.243164
2018-09-23T05:15:47.061Z,49.139404
2018-09-23T05:16:16.353Z,48.840332
2018-09-23T05:16:45.614Z,48.840332
2018-09-23T05:17:14.923Z,48.840332
2018-09-23T05:17:44.176Z,48.937988
2018-09-23T05:18:13.560Z,48.4375
2018-09-23T05:18:42.933Z,48.339844
2018-09-23T05:19:12.183Z,48.4375
2018-09-23T05:19:41.461Z,48.638916
2018-09-23T05:20:10.748Z,48.66333
2018-09-23T05:20:40.021Z,48.760986
2018-09-23T05:21:09.344Z,48.864746
2018-09-23T05:21:38.590Z,48.962402
2018-09-23T05:22:07.907Z,48.66333
2018-09-23T05:22:37.155Z,48.760986
2018-09-23T05:23:06.425Z,48.962402
2018-09-23T05:23:35.731Z,48.864746
2018-09-23T05:24:05.056Z,48.962402
2018-09-23T05:24:35.328Z,48.962402
2018-09-23T05:25:04.656Z,49.066162
2018-09-23T05:25:33.917Z,48.88916
2018-09-23T05:26:03.235Z,49.084473
2018-09-23T05:26:32.499Z,49.084473
2018-09-23T05:27:01.780Z,49.084473
2018-09-23T05:27:31.090Z,49.084473
2018-09-23T05:28:00.372Z,48.864746
2018-09-23T05:28:29.674Z,48.88916
2018-09-23T05:28:59.080Z,48.583984
2018-09-23T05:29:28.345Z,48.687744
2018-09-23T05:29:57.651Z,48.7854
2018-09-23T05:30:26.966Z,48.88916
2018-09-23T05:30:56.278Z,49.084473
2018-09-23T05:31:25.542Z,49.188232
2018-09-23T05:31:54.859Z,49.084473
2018-09-23T05:32:24.119Z,48.986816
2018-09-23T05:32:53.434Z,49.084473
2018-09-23T05:33:22.745Z,49.285889
2018-09-23T05:33:52.079Z,49.285889
2018-09-23T05:34:21.381Z,49.066162
2018-09-23T05:34:50.677Z,49.084473
2018-09-23T05:35:20.045Z,49.084473
2018-09-23T05:35:50.298Z,49.084473
2018-09-23T05:36:19.647Z,49.084473
2018-09-23T05:36:48.937Z,48.986816
2018-09-23T05:37:18.197Z,49.084473
2018-09-23T05:37:47.474Z,49.188232
2018-09-23T05:38:16.779Z,49.285889
2018-09-23T05:38:46.092Z,49.487305
2018-09-23T05:39:15.432Z,49.584961
2018-09-23T05:39:44.688Z,49.487305
2018-09-23T05:40:14.024Z,49.56665
2018-09-23T05:40:43.275Z,49.462891
2018-09-23T05:41:12.550Z,49.365234
2018-09-23T05:41:41.852Z,49.365234
2018-09-23T05:42:11.118Z,49.56665
2018-09-23T05:42:40.382Z,49.462891
2018-09-23T05:43:09.671Z,49.365234
2018-09-23T05:43:38.952Z,49.261475